Airfield :
LOGIN :

Register | Disclaimer

   EN    FR    IT 

 










Legend :    VFR   Marginal VFR   IFR   Intensive IFR   Very Intensive IFR
Visi :
Ceiling :
>= 8 km
>= 3000ft
5 to 8 km
1000 to 3000 ft
1500m to 5 km
500 to 1000 ft
800 to 1500m
200 to 500 ft
< 800m
< 200 ft
Symbols :   Thunderstorms  Fog  Heavy snow  Heavy precipitations  Wind > 20 kt
SIGMETs :     Misc.  Thunderstorms  Icing  Turbulence  Mountain Waves  Volcanic Ashes






- Airport Elevation : 195 ft


LFMY - Salon de Provence

CURRENT METAR :
  • 210800Z AUTO 09010KT 9999 FEW040/// SCT054/// BKN070/// ///TCU 10/08 Q1008 TEMPO SHRA

EXPIRED METARs :
  • 210730Z AUTO 09010KT 9999 FEW050/// SCT064/// BKN078/// ///CB 10/08 Q1008 TEMPO SHRA
  • 210700Z AUTO 07006KT 9999 FEW045 BKN060 BKN076 09/07 Q1008 TEMPO SHRA BKN025TCU
  • 210630Z AUTO 07005KT 9999 BKN036 BKN042 OVC050 09/07 Q1008 TEMPO SHRA BKN025TCU
  • 210600Z AUTO 08005KT 9999 FEW038/// BKN047/// BKN064/// ///TCU 08/07 Q1008 TEMPO SHRA
  • 210530Z AUTO 06006KT 9999 ///TCU 09/07 Q1008

TAF TAF LFMY
Valid from the 21 at 03:00 until the 22 at 03:00 UTC


210200Z 2103/2203 09008KT 9999 BKN040 BKN070
TEMPO 2105/2119 6000 SHRA BKN025TCU
PROB40
TEMPO 2110/2119 12015G25KT 3000 TSRA SCT020CB BKN025



MET'MAP, your aeronautical weather chart ! - Copyright ORBIFLY December 2007 - Disclaimer

ORBIFLY MET'MAP TEAM :

Programming & Development : Alexandra Zaïnal
Concept & Development : Baudouin d'Aumeries
Co-Development & Prog : Marc-Olivier Méhu
Technical & hardware support : Manuel Goepfert

Contact : metmap@orbifly.com




SOURCES & CREDITS :

   NOAA